sensor_id;sensor_type;location;lat;lon;timestamp;pressure;altitude;pressure_sealevel;temperature;humidity
4576;BME280;2300;51.874;8.430;2023-04-09T00:02:03;101807.38;;;4.04;97.92
4576;BME280;2300;51.874;8.430;2023-04-09T00:04:30;101798.16;;;3.97;98.34
4576;BME280;2300;51.874;8.430;2023-04-09T00:06:57;101801.59;;;3.99;98.76
4576;BME280;2300;51.874;8.430;2023-04-09T00:09:23;101774.13;;;3.76;98.06
4576;BME280;2300;51.874;8.430;2023-04-09T00:11:50;101795.28;;;3.98;98.81
4576;BME280;2300;51.874;8.430;2023-04-09T00:14:18;101801.91;;;3.96;98.57
4576;BME280;2300;51.874;8.430;2023-04-09T00:16:46;101784.34;;;3.82;98.69
4576;BME280;2300;51.874;8.430;2023-04-09T00:19:13;101785.56;;;3.88;99.05
4576;BME280;2300;51.874;8.430;2023-04-09T00:21:40;101787.22;;;3.81;98.75
4576;BME280;2300;51.874;8.430;2023-04-09T00:24:07;101790.66;;;3.91;99.42
4576;BME280;2300;51.874;8.430;2023-04-09T00:26:34;101792.00;;;3.87;98.72
4576;BME280;2300;51.874;8.430;2023-04-09T00:29:01;101787.94;;;3.91;99.32
4576;BME280;2300;51.874;8.430;2023-04-09T00:31:28;101771.75;;;3.81;99.35
4576;BME280;2300;51.874;8.430;2023-04-09T00:33:57;101793.38;;;3.91;99.68
4576;BME280;2300;51.874;8.430;2023-04-09T00:36:24;101785.22;;;3.91;99.71
4576;BME280;2300;51.874;8.430;2023-04-09T00:38:51;101779.41;;;3.86;99.79
4576;BME280;2300;51.874;8.430;2023-04-09T00:41:18;101788.59;;;3.85;99.62
4576;BME280;2300;51.874;8.430;2023-04-09T00:43:47;101779.22;;;3.79;99.92
4576;BME280;2300;51.874;8.430;2023-04-09T00:46:13;101778.53;;;3.77;99.52
4576;BME280;2300;51.874;8.430;2023-04-09T00:48:42;101780.41;;;3.77;99.46
4576;BME280;2300;51.874;8.430;2023-04-09T00:51:10;101764.81;;;3.53;99.60
4576;BME280;2300;51.874;8.430;2023-04-09T00:53:37;101775.50;;;3.54;99.43
4576;BME280;2300;51.874;8.430;2023-04-09T00:56:05;101766.97;;;3.41;99.12
4576;BME280;2300;51.874;8.430;2023-04-09T00:58:32;101775.63;;;3.45;99.39
4576;BME280;2300;51.874;8.430;2023-04-09T01:01:00;101775.41;;;3.38;99.52
4576;BME280;2300;51.874;8.430;2023-04-09T01:03:27;101768.19;;;3.21;99.19
4576;BME280;2300;51.874;8.430;2023-04-09T01:05:59;101778.38;;;3.27;99.08
4576;BME280;2300;51.874;8.430;2023-04-09T01:08:40;101776.53;;;3.28;99.00
4576;BME280;2300;51.874;8.430;2023-04-09T01:11:15;101777.63;;;3.17;99.69
4576;BME280;2300;51.874;8.430;2023-04-09T01:13:48;101767.72;;;3.08;99.62
4576;BME280;2300;51.874;8.430;2023-04-09T01:16:21;101778.59;;;3.08;99.80
4576;BME280;2300;51.874;8.430;2023-04-09T01:18:51;101774.50;;;3.04;99.31
4576;BME280;2300;51.874;8.430;2023-04-09T01:21:22;101780.06;;;3.02;99.97
4576;BME280;2300;51.874;8.430;2023-04-09T01:23:57;101773.78;;;3.02;100.00
4576;BME280;2300;51.874;8.430;2023-04-09T01:26:37;101759.44;;;2.92;100.00
4576;BME280;2300;51.874;8.430;2023-04-09T01:29:08;101742.19;;;2.75;100.00
4576;BME280;2300;51.874;8.430;2023-04-09T01:31:37;101760.41;;;2.83;100.00
4576;BME280;2300;51.874;8.430;2023-04-09T01:34:07;101750.78;;;2.70;99.76
4576;BME280;2300;51.874;8.430;2023-04-09T01:36:35;101786.38;;;2.85;99.75
4576;BME280;2300;51.874;8.430;2023-04-09T01:39:05;101775.97;;;2.81;99.92
4576;BME280;2300;51.874;8.430;2023-04-09T01:41:34;101765.22;;;2.71;100.00
4576;BME280;2300;51.874;8.430;2023-04-09T01:44:02;101775.91;;;2.72;99.40
4576;BME280;2300;51.874;8.430;2023-04-09T01:46:32;101774.91;;;2.73;99.40
4576;BME280;2300;51.874;8.430;2023-04-09T01:49:01;101757.16;;;2.61;100.00
4576;BME280;2300;51.874;8.430;2023-04-09T01:51:28;101755.06;;;2.55;100.00
4576;BME280;2300;51.874;8.430;2023-04-09T01:53:55;101741.13;;;2.50;100.00
4576;BME280;2300;51.874;8.430;2023-04-09T01:56:22;101786.00;;;2.62;99.92
4576;BME280;2300;51.874;8.430;2023-04-09T01:58:50;101788.47;;;2.56;100.00
4576;BME280;2300;51.874;8.430;2023-04-09T02:01:22;101763.50;;;2.34;100.00
4576;BME280;2300;51.874;8.430;2023-04-09T02:03:53;101780.78;;;2.51;100.00
4576;BME280;2300;51.874;8.430;2023-04-09T02:06:26;101784.81;;;2.47;99.91
4576;BME280;2300;51.874;8.430;2023-04-09T02:08:57;101784.28;;;2.44;99.55
4576;BME280;2300;51.874;8.430;2023-04-09T02:11:28;101760.16;;;2.23;99.83
4576;BME280;2300;51.874;8.430;2023-04-09T02:13:57;101778.22;;;2.32;99.62
4576;BME280;2300;51.874;8.430;2023-04-09T02:16:24;101760.44;;;2.20;100.00
4576;BME280;2300;51.874;8.430;2023-04-09T02:18:54;101763.94;;;2.30;99.65
4576;BME280;2300;51.874;8.430;2023-04-09T02:21:22;101764.41;;;2.25;99.34
4576;BME280;2300;51.874;8.430;2023-04-09T02:23:49;101757.59;;;2.21;100.00
4576;BME280;2300;51.874;8.430;2023-04-09T02:26:16;101732.59;;;2.27;100.00
4576;BME280;2300;51.874;8.430;2023-04-09T02:28:43;101759.53;;;2.29;100.00
4576;BME280;2300;51.874;8.430;2023-04-09T02:31:10;101765.66;;;2.31;100.00
4576;BME280;2300;51.874;8.430;2023-04-09T02:33:39;101748.94;;;2.18;100.00
4576;BME280;2300;51.874;8.430;2023-04-09T02:36:09;101763.50;;;2.34;100.00
4576;BME280;2300;51.874;8.430;2023-04-09T02:38:39;101757.06;;;2.18;100.00
4576;BME280;2300;51.874;8.430;2023-04-09T02:41:06;101762.16;;;2.21;100.00
4576;BME280;2300;51.874;8.430;2023-04-09T02:43:33;101767.91;;;2.18;100.00
4576;BME280;2300;51.874;8.430;2023-04-09T02:46:00;101735.41;;;1.90;100.00
4576;BME280;2300;51.874;8.430;2023-04-09T02:48:26;101737.50;;;1.97;100.00
4576;BME280;2300;51.874;8.430;2023-04-09T02:50:53;101717.34;;;1.81;100.00
4576;BME280;2300;51.874;8.430;2023-04-09T02:53:21;101758.56;;;2.03;100.00
4576;BME280;2300;51.874;8.430;2023-04-09T02:55:48;101762.97;;;2.04;100.00
4576;BME280;2300;51.874;8.430;2023-04-09T02:58:15;101759.19;;;1.97;100.00
4576;BME280;2300;51.874;8.430;2023-04-09T03:00:41;101768.06;;;1.89;100.00
4576;BME280;2300;51.874;8.430;2023-04-09T03:03:08;101744.84;;;1.86;100.00
4576;BME280;2300;51.874;8.430;2023-04-09T03:05:35;101759.66;;;1.82;99.30
4576;BME280;2300;51.874;8.430;2023-04-09T03:08:02;101753.25;;;1.83;99.60
4576;BME280;2300;51.874;8.430;2023-04-09T03:10:30;101748.44;;;1.77;99.73
4576;BME280;2300;51.874;8.430;2023-04-09T03:12:57;101736.69;;;1.59;99.20
4576;BME280;2300;51.874;8.430;2023-04-09T03:15:24;101756.31;;;1.71;100.00
4576;BME280;2300;51.874;8.430;2023-04-09T03:17:50;101728.16;;;1.54;100.00
4576;BME280;2300;51.874;8.430;2023-04-09T03:20:17;101738.22;;;1.62;100.00
4576;BME280;2300;51.874;8.430;2023-04-09T03:22:44;101725.47;;;1.54;100.00
4576;BME280;2300;51.874;8.430;2023-04-09T03:25:11;101747.63;;;1.67;100.00
4576;BME280;2300;51.874;8.430;2023-04-09T03:27:39;101748.59;;;1.76;100.00
4576;BME280;2300;51.874;8.430;2023-04-09T03:30:08;101739.91;;;1.72;100.00
4576;BME280;2300;51.874;8.430;2023-04-09T03:32:35;101743.41;;;1.82;100.00
4576;BME280;2300;51.874;8.430;2023-04-09T03:35:02;101730.78;;;1.73;100.00
4576;BME280;2300;51.874;8.430;2023-04-09T03:37:31;101736.44;;;1.80;100.00
4576;BME280;2300;51.874;8.430;2023-04-09T03:39:58;101742.16;;;1.77;100.00
4576;BME280;2300;51.874;8.430;2023-04-09T03:42:27;101726.53;;;1.61;100.00
4576;BME280;2300;51.874;8.430;2023-04-09T03:44:55;101741.91;;;1.70;100.00
4576;BME280;2300;51.874;8.430;2023-04-09T03:47:23;101731.72;;;1.55;100.00
4576;BME280;2300;51.874;8.430;2023-04-09T03:49:51;101715.94;;;1.50;100.00
4576;BME280;2300;51.874;8.430;2023-04-09T03:52:19;101721.44;;;1.58;100.00
4576;BME280;2300;51.874;8.430;2023-04-09T03:54:46;101725.72;;;1.51;100.00
4576;BME280;2300;51.874;8.430;2023-04-09T03:57:12;101742.50;;;1.64;100.00
4576;BME280;2300;51.874;8.430;2023-04-09T03:59:39;101742.19;;;1.67;100.00
4576;BME280;2300;51.874;8.430;2023-04-09T04:02:07;101738.81;;;1.65;100.00
4576;BME280;2300;51.874;8.430;2023-04-09T04:04:34;101723.44;;;1.56;100.00
4576;BME280;2300;51.874;8.430;2023-04-09T04:07:01;101744.91;;;1.67;100.00
4576;BME280;2300;51.874;8.430;2023-04-09T04:09:28;101713.22;;;1.50;100.00
4576;BME280;2300;51.874;8.430;2023-04-09T04:11:55;101730.06;;;1.71;100.00
4576;BME280;2300;51.874;8.430;2023-04-09T04:14:24;101735.06;;;1.66;100.00
4576;BME280;2300;51.874;8.430;2023-04-09T04:16:50;101729.66;;;1.66;100.00
4576;BME280;2300;51.874;8.430;2023-04-09T04:19:20;101711.50;;;1.49;100.00
4576;BME280;2300;51.874;8.430;2023-04-09T04:21:48;101715.63;;;1.53;100.00
4576;BME280;2300;51.874;8.430;2023-04-09T04:24:15;101712.97;;;1.43;100.00
4576;BME280;2300;51.874;8.430;2023-04-09T04:26:43;101706.41;;;1.36;100.00
4576;BME280;2300;51.874;8.430;2023-04-09T04:29:10;101715.25;;;1.38;100.00
4576;BME280;2300;51.874;8.430;2023-04-09T04:31:36;101723.25;;;1.40;100.00
4576;BME280;2300;51.874;8.430;2023-04-09T04:34:05;101732.75;;;1.44;100.00
4576;BME280;2300;51.874;8.430;2023-04-09T04:36:33;101732.31;;;1.48;100.00
4576;BME280;2300;51.874;8.430;2023-04-09T04:38:59;101739.50;;;1.40;100.00
4576;BME280;2300;51.874;8.430;2023-04-09T04:41:26;101721.28;;;1.23;100.00
4576;BME280;2300;51.874;8.430;2023-04-09T04:43:53;101730.34;;;1.41;100.00
4576;BME280;2300;51.874;8.430;2023-04-09T04:46:21;101712.44;;;1.30;100.00
4576;BME280;2300;51.874;8.430;2023-04-09T04:48:48;101733.22;;;1.39;100.00
4576;BME280;2300;51.874;8.430;2023-04-09T04:51:15;101726.72;;;1.23;100.00
4576;BME280;2300;51.874;8.430;2023-04-09T04:53:43;101750.59;;;1.37;100.00
4576;BME280;2300;51.874;8.430;2023-04-09T04:56:12;101740.63;;;1.37;100.00
4576;BME280;2300;51.874;8.430;2023-04-09T04:58:39;101734.69;;;1.24;100.00
4576;BME280;2300;51.874;8.430;2023-04-09T05:01:05;101742.06;;;1.32;100.00
4576;BME280;2300;51.874;8.430;2023-04-09T05:03:34;101742.78;;;1.34;100.00
4576;BME280;2300;51.874;8.430;2023-04-09T05:06:00;101731.53;;;1.29;100.00
4576;BME280;2300;51.874;8.430;2023-04-09T05:08:27;101730.81;;;1.27;100.00
4576;BME280;2300;51.874;8.430;2023-04-09T05:10:55;101747.16;;;1.44;100.00
4576;BME280;2300;51.874;8.430;2023-04-09T05:13:22;101742.03;;;1.41;100.00
4576;BME280;2300;51.874;8.430;2023-04-09T05:15:50;101687.69;;;1.16;100.00
4576;BME280;2300;51.874;8.430;2023-04-09T05:18:17;101752.13;;;1.49;100.00
4576;BME280;2300;51.874;8.430;2023-04-09T05:20:44;101753.38;;;1.55;100.00
4576;BME280;2300;51.874;8.430;2023-04-09T05:23:10;101753.34;;;1.64;100.00
4576;BME280;2300;51.874;8.430;2023-04-09T05:25:37;101736.25;;;1.64;100.00
4576;BME280;2300;51.874;8.430;2023-04-09T05:28:06;101755.97;;;1.83;100.00
4576;BME280;2300;51.874;8.430;2023-04-09T05:30:35;101760.78;;;2.17;100.00
4576;BME280;2300;51.874;8.430;2023-04-09T05:33:02;101749.88;;;2.62;100.00
4576;BME280;2300;51.874;8.430;2023-04-09T05:35:29;101763.16;;;3.08;100.00
4576;BME280;2300;51.874;8.430;2023-04-09T05:37:55;101752.94;;;3.28;100.00
4576;BME280;2300;51.874;8.430;2023-04-09T05:40:22;101760.50;;;3.68;100.00
4576;BME280;2300;51.874;8.430;2023-04-09T05:42:49;101731.75;;;3.57;100.00
4576;BME280;2300;51.874;8.430;2023-04-09T05:45:17;101764.91;;;4.03;100.00
4576;BME280;2300;51.874;8.430;2023-04-09T05:47:45;101761.59;;;4.33;100.00
4576;BME280;2300;51.874;8.430;2023-04-09T05:50:14;101756.88;;;4.43;100.00
4576;BME280;2300;51.874;8.430;2023-04-09T05:52:41;101746.34;;;4.48;100.00
4576;BME280;2300;51.874;8.430;2023-04-09T05:55:08;101767.66;;;4.85;100.00
4576;BME280;2300;51.874;8.430;2023-04-09T05:57:35;101727.66;;;4.78;100.00
4576;BME280;2300;51.874;8.430;2023-04-09T06:00:02;101762.38;;;5.00;100.00
4576;BME280;2300;51.874;8.430;2023-04-09T06:02:31;101765.78;;;5.10;100.00
4576;BME280;2300;51.874;8.430;2023-04-09T06:04:58;101750.78;;;5.14;100.00
4576;BME280;2300;51.874;8.430;2023-04-09T06:07:25;101760.69;;;5.07;100.00
4576;BME280;2300;51.874;8.430;2023-04-09T06:09:52;101747.06;;;4.91;99.56
4576;BME280;2300;51.874;8.430;2023-04-09T06:12:19;101756.56;;;5.03;97.29
4576;BME280;2300;51.874;8.430;2023-04-09T06:14:46;101764.59;;;4.97;96.50
4576;BME280;2300;51.874;8.430;2023-04-09T06:17:13;101766.97;;;5.16;97.20
4576;BME280;2300;51.874;8.430;2023-04-09T06:19:42;101757.28;;;4.97;95.88
4576;BME280;2300;51.874;8.430;2023-04-09T06:22:09;101756.59;;;4.79;95.40
4576;BME280;2300;51.874;8.430;2023-04-09T06:24:36;101761.19;;;4.78;94.44
4576;BME280;2300;51.874;8.430;2023-04-09T06:27:02;101775.31;;;4.90;94.38
4576;BME280;2300;51.874;8.430;2023-04-09T06:29:30;101776.31;;;5.13;94.60
4576;BME280;2300;51.874;8.430;2023-04-09T06:31:56;101782.94;;;5.19;93.75
4576;BME280;2300;51.874;8.430;2023-04-09T06:34:25;101782.09;;;5.18;93.23
4576;BME280;2300;51.874;8.430;2023-04-09T06:36:53;101776.31;;;5.21;93.08
4576;BME280;2300;51.874;8.430;2023-04-09T06:39:20;101784.47;;;5.38;93.70
4576;BME280;2300;51.874;8.430;2023-04-09T06:41:47;101760.16;;;5.12;93.28
4576;BME280;2300;51.874;8.430;2023-04-09T06:44:15;101787.19;;;5.29;93.43
4576;BME280;2300;51.874;8.430;2023-04-09T06:46:41;101780.06;;;5.28;93.56
4576;BME280;2300;51.874;8.430;2023-04-09T06:49:08;101740.94;;;5.05;93.94
4576;BME280;2300;51.874;8.430;2023-04-09T06:51:35;101770.00;;;5.37;93.57
4576;BME280;2300;51.874;8.430;2023-04-09T06:54:04;101743.63;;;5.29;93.89
4576;BME280;2300;51.874;8.430;2023-04-09T06:56:33;101777.63;;;5.58;93.28
4576;BME280;2300;51.874;8.430;2023-04-09T06:59:00;101783.09;;;5.58;92.92
4576;BME280;2300;51.874;8.430;2023-04-09T07:01:28;101780.09;;;5.84;93.58
4576;BME280;2300;51.874;8.430;2023-04-09T07:03:55;101780.63;;;6.26;93.30
4576;BME280;2300;51.874;8.430;2023-04-09T07:06:22;101770.31;;;7.13;91.25
4576;BME280;2300;51.874;8.430;2023-04-09T07:08:49;101764.75;;;8.17;90.55
4576;BME280;2300;51.874;8.430;2023-04-09T07:11:17;101723.50;;;8.97;87.97
4576;BME280;2300;51.874;8.430;2023-04-09T07:13:49;101774.00;;;9.92;83.26
4576;BME280;2300;51.874;8.430;2023-04-09T07:16:16;101756.78;;;10.66;79.00
4576;BME280;2300;51.874;8.430;2023-04-09T07:18:43;101770.84;;;11.76;74.28
4576;BME280;2300;51.874;8.430;2023-04-09T07:21:11;101775.16;;;12.61;71.82
4576;BME280;2300;51.874;8.430;2023-04-09T07:23:38;101772.34;;;13.62;71.22
4576;BME280;2300;51.874;8.430;2023-04-09T07:26:07;101786.06;;;14.48;67.60
4576;BME280;2300;51.874;8.430;2023-04-09T07:28:36;101776.19;;;15.00;63.38
4576;BME280;2300;51.874;8.430;2023-04-09T07:31:02;101783.47;;;15.24;61.54
4576;BME280;2300;51.874;8.430;2023-04-09T07:33:29;101781.09;;;15.39;60.21
4576;BME280;2300;51.874;8.430;2023-04-09T07:35:56;101779.22;;;15.75;60.37
4576;BME280;2300;51.874;8.430;2023-04-09T07:38:23;101789.47;;;16.61;58.56
4576;BME280;2300;51.874;8.430;2023-04-09T07:40:49;101787.53;;;16.61;58.09
4576;BME280;2300;51.874;8.430;2023-04-09T07:43:17;101793.28;;;16.71;58.73
4576;BME280;2300;51.874;8.430;2023-04-09T07:45:47;101781.50;;;16.93;56.16
4576;BME280;2300;51.874;8.430;2023-04-09T07:48:15;101784.78;;;16.50;57.41
4576;BME280;2300;51.874;8.430;2023-04-09T07:50:42;101793.50;;;17.10;55.53
4576;BME280;2300;51.874;8.430;2023-04-09T07:53:09;101796.34;;;16.87;56.96
4576;BME280;2300;51.874;8.430;2023-04-09T07:55:37;101784.69;;;17.13;55.76
4576;BME280;2300;51.874;8.430;2023-04-09T07:58:04;101802.19;;;17.64;55.44
4576;BME280;2300;51.874;8.430;2023-04-09T08:00:31;101796.56;;;17.42;55.77
4576;BME280;2300;51.874;8.430;2023-04-09T08:02:59;101798.69;;;18.23;53.97
4576;BME280;2300;51.874;8.430;2023-04-09T08:05:28;101761.63;;;17.63;53.88
4576;BME280;2300;51.874;8.430;2023-04-09T08:07:55;101798.25;;;17.76;54.35
4576;BME280;2300;51.874;8.430;2023-04-09T08:10:22;101796.63;;;19.01;53.44
4576;BME280;2300;51.874;8.430;2023-04-09T08:12:48;101777.28;;;18.67;54.06
4576;BME280;2300;51.874;8.430;2023-04-09T08:15:15;101797.41;;;19.60;51.41
4576;BME280;2300;51.874;8.430;2023-04-09T08:17:42;101780.91;;;19.48;51.67
4576;BME280;2300;51.874;8.430;2023-04-09T08:20:13;101788.91;;;17.66;53.07
4576;BME280;2300;51.874;8.430;2023-04-09T08:22:41;101762.50;;;17.01;55.77
4576;BME280;2300;51.874;8.430;2023-04-09T08:25:08;101791.94;;;17.64;54.52
4576;BME280;2300;51.874;8.430;2023-04-09T08:27:34;101768.47;;;17.55;54.61
4576;BME280;2300;51.874;8.430;2023-04-09T08:30:04;101775.78;;;17.44;56.43
4576;BME280;2300;51.874;8.430;2023-04-09T08:32:34;101770.47;;;17.43;56.24
4576;BME280;2300;51.874;8.430;2023-04-09T08:35:01;101772.41;;;16.97;56.71
4576;BME280;2300;51.874;8.430;2023-04-09T08:37:30;101779.16;;;16.33;58.68
4576;BME280;2300;51.874;8.430;2023-04-09T08:39:56;101763.09;;;15.95;58.88
4576;BME280;2300;51.874;8.430;2023-04-09T08:42:24;101786.91;;;16.08;59.19
4576;BME280;2300;51.874;8.430;2023-04-09T08:44:51;101786.44;;;15.76;58.51
4576;BME280;2300;51.874;8.430;2023-04-09T08:47:21;101774.09;;;15.25;60.46
4576;BME280;2300;51.874;8.430;2023-04-09T08:49:49;101779.69;;;15.07;61.03
4576;BME280;2300;51.874;8.430;2023-04-09T08:52:16;101758.28;;;15.44;58.52
4576;BME280;2300;51.874;8.430;2023-04-09T08:54:48;101770.03;;;14.98;59.60
4576;BME280;2300;51.874;8.430;2023-04-09T08:57:16;101764.13;;;14.94;59.72
4576;BME280;2300;51.874;8.430;2023-04-09T08:59:43;101777.25;;;14.99;61.10
4576;BME280;2300;51.874;8.430;2023-04-09T09:02:10;101771.56;;;15.24;62.96
4576;BME280;2300;51.874;8.430;2023-04-09T09:04:44;101766.56;;;15.56;59.49
4576;BME280;2300;51.874;8.430;2023-04-09T09:07:11;101768.59;;;15.60;59.22
4576;BME280;2300;51.874;8.430;2023-04-09T09:09:53;101753.81;;;16.01;56.67
4576;BME280;2300;51.874;8.430;2023-04-09T09:12:35;101771.16;;;15.85;60.49
4576;BME280;2300;51.874;8.430;2023-04-09T09:15:05;101740.34;;;15.70;59.03
4576;BME280;2300;51.874;8.430;2023-04-09T09:17:53;101768.13;;;15.28;60.28
4576;BME280;2300;51.874;8.430;2023-04-09T09:20:21;101760.44;;;15.54;60.28
4576;BME280;2300;51.874;8.430;2023-04-09T09:22:49;101767.41;;;15.91;60.98
4576;BME280;2300;51.874;8.430;2023-04-09T09:25:17;101762.72;;;15.68;57.89
4576;BME280;2300;51.874;8.430;2023-04-09T09:27:49;101755.88;;;15.47;57.56
4576;BME280;2300;51.874;8.430;2023-04-09T09:30:20;101758.47;;;15.31;58.10
4576;BME280;2300;51.874;8.430;2023-04-09T09:32:50;101735.66;;;15.59;58.01
4576;BME280;2300;51.874;8.430;2023-04-09T09:35:19;101758.28;;;15.79;58.89
4576;BME280;2300;51.874;8.430;2023-04-09T09:37:46;101749.28;;;15.07;57.48
4576;BME280;2300;51.874;8.430;2023-04-09T09:40:26;101733.25;;;14.67;58.77
4576;BME280;2300;51.874;8.430;2023-04-09T09:42:56;101752.03;;;15.07;60.11
4576;BME280;2300;51.874;8.430;2023-04-09T09:45:24;101760.78;;;15.34;60.80
4576;BME280;2300;51.874;8.430;2023-04-09T09:47:51;101735.78;;;15.64;58.47
4576;BME280;2300;51.874;8.430;2023-04-09T09:50:19;101741.78;;;15.72;59.94
4576;BME280;2300;51.874;8.430;2023-04-09T09:52:46;101756.47;;;15.73;57.85
4576;BME280;2300;51.874;8.430;2023-04-09T09:55:15;101752.09;;;16.12;58.29
4576;BME280;2300;51.874;8.430;2023-04-09T09:57:45;101754.75;;;16.18;56.09
4576;BME280;2300;51.874;8.430;2023-04-09T10:00:13;101749.72;;;16.44;54.17
4576;BME280;2300;51.874;8.430;2023-04-09T10:02:43;101748.59;;;16.05;55.66
4576;BME280;2300;51.874;8.430;2023-04-09T10:05:14;101748.09;;;15.15;56.50
4576;BME280;2300;51.874;8.430;2023-04-09T10:07:41;101728.00;;;14.78;57.46
4576;BME280;2300;51.874;8.430;2023-04-09T10:10:09;101739.94;;;14.48;57.12
4576;BME280;2300;51.874;8.430;2023-04-09T10:12:36;101742.72;;;14.30;59.68
4576;BME280;2300;51.874;8.430;2023-04-09T10:15:08;101735.50;;;14.29;59.12
4576;BME280;2300;51.874;8.430;2023-04-09T10:17:35;101744.50;;;14.25;57.92
4576;BME280;2300;51.874;8.430;2023-04-09T10:20:09;101733.03;;;14.39;59.66
4576;BME280;2300;51.874;8.430;2023-04-09T10:22:37;101730.91;;;15.13;59.37
4576;BME280;2300;51.874;8.430;2023-04-09T10:25:05;101712.38;;;15.83;56.91
4576;BME280;2300;51.874;8.430;2023-04-09T10:27:32;101728.03;;;15.66;55.38
4576;BME280;2300;51.874;8.430;2023-04-09T10:30:00;101734.91;;;15.52;55.48
4576;BME280;2300;51.874;8.430;2023-04-09T10:32:33;101717.44;;;14.45;56.03
4576;BME280;2300;51.874;8.430;2023-04-09T10:35:01;101712.16;;;14.25;56.46
4576;BME280;2300;51.874;8.430;2023-04-09T10:37:29;101714.44;;;14.76;57.10
4576;BME280;2300;51.874;8.430;2023-04-09T10:39:56;101712.53;;;15.18;54.18
4576;BME280;2300;51.874;8.430;2023-04-09T10:42:31;101699.78;;;15.17;53.27
4576;BME280;2300;51.874;8.430;2023-04-09T10:45:06;101717.22;;;15.29;53.06
4576;BME280;2300;51.874;8.430;2023-04-09T10:47:36;101718.47;;;14.92;54.71
4576;BME280;2300;51.874;8.430;2023-04-09T10:50:14;101717.75;;;15.08;53.78
4576;BME280;2300;51.874;8.430;2023-04-09T10:52:42;101703.94;;;14.66;54.72
4576;BME280;2300;51.874;8.430;2023-04-09T10:55:08;101683.94;;;14.23;55.07
4576;BME280;2300;51.874;8.430;2023-04-09T10:57:35;101707.25;;;14.45;55.66
4576;BME280;2300;51.874;8.430;2023-04-09T11:00:03;101698.88;;;14.63;55.14
4576;BME280;2300;51.874;8.430;2023-04-09T11:03:05;101706.50;;;15.68;56.05
4576;BME280;2300;51.874;8.430;2023-04-09T11:05:36;101703.00;;;15.84;52.32
4576;BME280;2300;51.874;8.430;2023-04-09T11:08:05;101711.06;;;16.65;51.50
4576;BME280;2300;51.874;8.430;2023-04-09T11:10:34;101701.97;;;16.98;53.64
4576;BME280;2300;51.874;8.430;2023-04-09T11:13:02;101674.66;;;16.05;52.58
4576;BME280;2300;51.874;8.430;2023-04-09T11:15:31;101698.50;;;16.06;52.30
4576;BME280;2300;51.874;8.430;2023-04-09T11:18:01;101690.03;;;16.24;54.53
4576;BME280;2300;51.874;8.430;2023-04-09T11:20:28;101681.88;;;16.46;53.93
4576;BME280;2300;51.874;8.430;2023-04-09T11:22:57;101700.13;;;16.87;50.79
4576;BME280;2300;51.874;8.430;2023-04-09T11:25:26;101692.34;;;17.17;49.54
4576;BME280;2300;51.874;8.430;2023-04-09T11:27:53;101674.16;;;16.93;50.64
4576;BME280;2300;51.874;8.430;2023-04-09T11:30:19;101689.13;;;16.64;52.42
4576;BME280;2300;51.874;8.430;2023-04-09T11:32:47;101693.16;;;16.28;50.94
4576;BME280;2300;51.874;8.430;2023-04-09T11:35:17;101683.78;;;16.17;52.12
4576;BME280;2300;51.874;8.430;2023-04-09T11:37:44;101680.25;;;15.82;53.06
4576;BME280;2300;51.874;8.430;2023-04-09T11:40:14;101688.69;;;15.64;52.32
4576;BME280;2300;51.874;8.430;2023-04-09T11:42:42;101676.19;;;15.49;52.62
4576;BME280;2300;51.874;8.430;2023-04-09T11:45:10;101664.88;;;15.16;53.02
4576;BME280;2300;51.874;8.430;2023-04-09T11:47:38;101675.81;;;15.11;53.38
4576;BME280;2300;51.874;8.430;2023-04-09T11:50:07;101676.44;;;15.13;53.32
4576;BME280;2300;51.874;8.430;2023-04-09T11:52:36;101658.34;;;14.99;52.29
4576;BME280;2300;51.874;8.430;2023-04-09T11:55:04;101669.38;;;14.87;52.01
4576;BME280;2300;51.874;8.430;2023-04-09T11:57:39;101661.53;;;14.73;51.41
4576;BME280;2300;51.874;8.430;2023-04-09T12:00:08;101665.41;;;14.42;52.59
4576;BME280;2300;51.874;8.430;2023-04-09T12:02:37;101670.19;;;14.35;52.71
4576;BME280;2300;51.874;8.430;2023-04-09T12:05:07;101675.16;;;14.44;52.21
4576;BME280;2300;51.874;8.430;2023-04-09T12:07:36;101679.13;;;14.48;54.70
4576;BME280;2300;51.874;8.430;2023-04-09T12:10:04;101673.38;;;14.61;54.80
4576;BME280;2300;51.874;8.430;2023-04-09T12:12:38;101666.19;;;14.60;53.59
4576;BME280;2300;51.874;8.430;2023-04-09T12:15:18;101678.91;;;14.61;51.58
4576;BME280;2300;51.874;8.430;2023-04-09T12:17:47;101678.66;;;14.51;52.14
4576;BME280;2300;51.874;8.430;2023-04-09T12:20:27;101664.41;;;14.36;52.64
4576;BME280;2300;51.874;8.430;2023-04-09T12:22:57;101687.47;;;14.60;51.28
4576;BME280;2300;51.874;8.430;2023-04-09T12:25:24;101687.06;;;14.45;53.80
4576;BME280;2300;51.874;8.430;2023-04-09T12:27:51;101683.72;;;14.54;53.05
4576;BME280;2300;51.874;8.430;2023-04-09T12:30:18;101682.59;;;14.85;51.84
4576;BME280;2300;51.874;8.430;2023-04-09T12:32:45;101661.50;;;15.61;52.80
4576;BME280;2300;51.874;8.430;2023-04-09T12:35:12;101662.81;;;15.58;50.75
4576;BME280;2300;51.874;8.430;2023-04-09T12:37:41;101657.75;;;15.67;51.74
4576;BME280;2300;51.874;8.430;2023-04-09T12:40:10;101670.06;;;15.59;48.86
4576;BME280;2300;51.874;8.430;2023-04-09T12:42:38;101662.22;;;15.44;50.66
4576;BME280;2300;51.874;8.430;2023-04-09T12:45:06;101669.06;;;15.65;50.56
4576;BME280;2300;51.874;8.430;2023-04-09T12:47:33;101671.81;;;15.65;50.75
4576;BME280;2300;51.874;8.430;2023-04-09T12:50:00;101664.53;;;15.36;50.42
4576;BME280;2300;51.874;8.430;2023-04-09T12:52:27;101666.66;;;15.69;49.43
4576;BME280;2300;51.874;8.430;2023-04-09T12:54:54;101672.56;;;15.61;50.10
4576;BME280;2300;51.874;8.430;2023-04-09T12:57:22;101661.25;;;15.50;51.66
4576;BME280;2300;51.874;8.430;2023-04-09T12:59:49;101659.56;;;15.73;50.95
4576;BME280;2300;51.874;8.430;2023-04-09T13:02:16;101669.13;;;16.05;50.61
4576;BME280;2300;51.874;8.430;2023-04-09T13:04:43;101656.28;;;15.76;50.51
4576;BME280;2300;51.874;8.430;2023-04-09T13:07:10;101642.38;;;15.99;50.02
4576;BME280;2300;51.874;8.430;2023-04-09T13:09:40;101625.25;;;15.74;50.35
4576;BME280;2300;51.874;8.430;2023-04-09T13:12:06;101652.91;;;15.85;50.08
4576;BME280;2300;51.874;8.430;2023-04-09T13:14:37;101652.28;;;15.95;48.70
4576;BME280;2300;51.874;8.430;2023-04-09T13:17:05;101641.31;;;16.00;49.72
4576;BME280;2300;51.874;8.430;2023-04-09T13:19:32;101647.00;;;15.82;48.62